sensor_id;sensor_type;location;lat;lon;timestamp;P1;durP1;ratioP1;P2;durP2;ratioP2
19006;SDS011;9636;47.382;8.480;2024-02-04T00:00:24;14.23;;;8.70;;
19006;SDS011;9636;47.382;8.480;2024-02-04T00:02:52;13.03;;;8.77;;
19006;SDS011;9636;47.382;8.480;2024-02-04T00:05:19;11.83;;;8.03;;
19006;SDS011;9636;47.382;8.480;2024-02-04T00:07:46;12.77;;;8.23;;
19006;SDS011;9636;47.382;8.480;2024-02-04T00:10:12;11.83;;;7.53;;
19006;SDS011;9636;47.382;8.480;2024-02-04T00:12:40;10.90;;;7.40;;
19006;SDS011;9636;47.382;8.480;2024-02-04T00:15:07;11.10;;;7.60;;
19006;SDS011;9636;47.382;8.480;2024-02-04T00:17:35;9.73;;;7.20;;
19006;SDS011;9636;47.382;8.480;2024-02-04T00:20:03;10.83;;;7.13;;
19006;SDS011;9636;47.382;8.480;2024-02-04T00:22:31;9.97;;;7.23;;
19006;SDS011;9636;47.382;8.480;2024-02-04T00:24:58;11.53;;;6.97;;
19006;SDS011;9636;47.382;8.480;2024-02-04T00:27:29;11.07;;;7.50;;
19006;SDS011;9636;47.382;8.480;2024-02-04T00:29:56;9.60;;;7.33;;
19006;SDS011;9636;47.382;8.480;2024-02-04T00:32:23;11.90;;;7.67;;
19006;SDS011;9636;47.382;8.480;2024-02-04T00:34:50;9.53;;;6.87;;
19006;SDS011;9636;47.382;8.480;2024-02-04T00:37:18;10.47;;;6.90;;
19006;SDS011;9636;47.382;8.480;2024-02-04T00:39:45;10.27;;;7.57;;
19006;SDS011;9636;47.382;8.480;2024-02-04T00:42:12;10.60;;;6.90;;
19006;SDS011;9636;47.382;8.480;2024-02-04T00:44:39;10.33;;;6.83;;
19006;SDS011;9636;47.382;8.480;2024-02-04T00:47:06;11.47;;;7.00;;
19006;SDS011;9636;47.382;8.480;2024-02-04T00:49:33;10.30;;;6.87;;
19006;SDS011;9636;47.382;8.480;2024-02-04T00:51:59;9.47;;;6.40;;
19006;SDS011;9636;47.382;8.480;2024-02-04T00:54:27;9.90;;;6.80;;
19006;SDS011;9636;47.382;8.480;2024-02-04T00:56:54;10.17;;;7.20;;
19006;SDS011;9636;47.382;8.480;2024-02-04T00:59:22;9.97;;;6.87;;
19006;SDS011;9636;47.382;8.480;2024-02-04T01:01:49;10.07;;;6.83;;
19006;SDS011;9636;47.382;8.480;2024-02-04T01:04:16;10.27;;;7.07;;
19006;SDS011;9636;47.382;8.480;2024-02-04T01:06:42;9.37;;;6.40;;
19006;SDS011;9636;47.382;8.480;2024-02-04T01:09:10;8.47;;;5.90;;
19006;SDS011;9636;47.382;8.480;2024-02-04T01:11:38;7.97;;;5.97;;
19006;SDS011;9636;47.382;8.480;2024-02-04T01:14:04;8.10;;;6.20;;
19006;SDS011;9636;47.382;8.480;2024-02-04T01:16:31;9.83;;;6.10;;
19006;SDS011;9636;47.382;8.480;2024-02-04T01:18:58;8.60;;;5.43;;
19006;SDS011;9636;47.382;8.480;2024-02-04T01:21:25;10.47;;;5.57;;
19006;SDS011;9636;47.382;8.480;2024-02-04T01:23:52;9.17;;;5.87;;
19006;SDS011;9636;47.382;8.480;2024-02-04T01:26:19;8.67;;;5.80;;
19006;SDS011;9636;47.382;8.480;2024-02-04T01:28:49;7.60;;;5.77;;
19006;SDS011;9636;47.382;8.480;2024-02-04T01:31:16;7.67;;;5.47;;
19006;SDS011;9636;47.382;8.480;2024-02-04T01:33:43;8.77;;;5.27;;
19006;SDS011;9636;47.382;8.480;2024-02-04T01:36:10;12.97;;;5.40;;
19006;SDS011;9636;47.382;8.480;2024-02-04T01:38:37;8.40;;;6.03;;
19006;SDS011;9636;47.382;8.480;2024-02-04T01:41:03;9.53;;;6.13;;
19006;SDS011;9636;47.382;8.480;2024-02-04T01:43:30;8.03;;;5.67;;
19006;SDS011;9636;47.382;8.480;2024-02-04T01:45:58;7.80;;;5.57;;
19006;SDS011;9636;47.382;8.480;2024-02-04T01:48:25;7.30;;;5.50;;
19006;SDS011;9636;47.382;8.480;2024-02-04T01:50:53;8.30;;;5.70;;
19006;SDS011;9636;47.382;8.480;2024-02-04T01:53:23;9.97;;;5.63;;
19006;SDS011;9636;47.382;8.480;2024-02-04T01:55:52;9.90;;;6.17;;
19006;SDS011;9636;47.382;8.480;2024-02-04T01:58:20;9.50;;;6.87;;
19006;SDS011;9636;47.382;8.480;2024-02-04T02:00:47;10.77;;;6.83;;
19006;SDS011;9636;47.382;8.480;2024-02-04T02:03:17;8.77;;;6.20;;
19006;SDS011;9636;47.382;8.480;2024-02-04T02:05:44;9.77;;;6.37;;
19006;SDS011;9636;47.382;8.480;2024-02-04T02:08:12;8.87;;;6.00;;
19006;SDS011;9636;47.382;8.480;2024-02-04T02:10:38;9.73;;;6.00;;
19006;SDS011;9636;47.382;8.480;2024-02-04T02:13:09;8.50;;;5.93;;
19006;SDS011;9636;47.382;8.480;2024-02-04T02:15:43;9.20;;;5.90;;
19006;SDS011;9636;47.382;8.480;2024-02-04T02:18:14;8.53;;;5.77;;
19006;SDS011;9636;47.382;8.480;2024-02-04T02:23:40;8.30;;;5.90;;
19006;SDS011;9636;47.382;8.480;2024-02-04T02:26:15;8.33;;;6.10;;
19006;SDS011;9636;47.382;8.480;2024-02-04T02:28:43;8.77;;;6.37;;
19006;SDS011;9636;47.382;8.480;2024-02-04T02:31:10;10.07;;;6.47;;
19006;SDS011;9636;47.382;8.480;2024-02-04T02:33:37;8.10;;;5.80;;
19006;SDS011;9636;47.382;8.480;2024-02-04T02:36:06;11.37;;;6.40;;
19006;SDS011;9636;47.382;8.480;2024-02-04T02:38:41;7.87;;;5.40;;
19006;SDS011;9636;47.382;8.480;2024-02-04T02:41:16;9.00;;;5.60;;
19006;SDS011;9636;47.382;8.480;2024-02-04T02:43:44;8.07;;;5.03;;
19006;SDS011;9636;47.382;8.480;2024-02-04T02:46:17;9.40;;;5.70;;
19006;SDS011;9636;47.382;8.480;2024-02-04T02:49:29;7.17;;;5.23;;
19006;SDS011;9636;47.382;8.480;2024-02-04T02:51:56;8.13;;;5.27;;
19006;SDS011;9636;47.382;8.480;2024-02-04T02:54:23;8.03;;;5.37;;
19006;SDS011;9636;47.382;8.480;2024-02-04T02:56:51;8.23;;;5.40;;
19006;SDS011;9636;47.382;8.480;2024-02-04T02:59:18;6.67;;;4.80;;
19006;SDS011;9636;47.382;8.480;2024-02-04T03:01:44;6.43;;;4.90;;
19006;SDS011;9636;47.382;8.480;2024-02-04T03:04:11;7.23;;;4.63;;
19006;SDS011;9636;47.382;8.480;2024-02-04T03:06:38;6.67;;;4.40;;
19006;SDS011;9636;47.382;8.480;2024-02-04T03:09:05;6.33;;;4.13;;
19006;SDS011;9636;47.382;8.480;2024-02-04T03:11:32;4.73;;;3.80;;
19006;SDS011;9636;47.382;8.480;2024-02-04T03:14:00;5.33;;;3.70;;
19006;SDS011;9636;47.382;8.480;2024-02-04T03:16:27;6.70;;;4.70;;
19006;SDS011;9636;47.382;8.480;2024-02-04T03:18:53;6.13;;;4.13;;
19006;SDS011;9636;47.382;8.480;2024-02-04T03:21:20;5.37;;;4.17;;
19006;SDS011;9636;47.382;8.480;2024-02-04T03:23:47;6.80;;;4.10;;
19006;SDS011;9636;47.382;8.480;2024-02-04T03:26:16;6.17;;;4.30;;
19006;SDS011;9636;47.382;8.480;2024-02-04T03:28:44;8.13;;;4.17;;
19006;SDS011;9636;47.382;8.480;2024-02-04T03:31:12;6.33;;;4.63;;
19006;SDS011;9636;47.382;8.480;2024-02-04T03:33:45;5.53;;;3.93;;
19006;SDS011;9636;47.382;8.480;2024-02-04T03:36:12;5.10;;;3.40;;
19006;SDS011;9636;47.382;8.480;2024-02-04T03:38:42;5.73;;;4.07;;
19006;SDS011;9636;47.382;8.480;2024-02-04T03:41:08;9.60;;;3.93;;
19006;SDS011;9636;47.382;8.480;2024-02-04T03:43:35;10.83;;;6.50;;
19006;SDS011;9636;47.382;8.480;2024-02-04T03:46:02;7.90;;;4.93;;
19006;SDS011;9636;47.382;8.480;2024-02-04T03:48:30;12.23;;;6.70;;
19006;SDS011;9636;47.382;8.480;2024-02-04T03:50:58;13.50;;;8.03;;
19006;SDS011;9636;47.382;8.480;2024-02-04T03:53:25;10.23;;;6.70;;
19006;SDS011;9636;47.382;8.480;2024-02-04T03:55:52;10.73;;;6.87;;
19006;SDS011;9636;47.382;8.480;2024-02-04T03:58:19;13.03;;;7.70;;
19006;SDS011;9636;47.382;8.480;2024-02-04T04:00:54;16.07;;;8.53;;
19006;SDS011;9636;47.382;8.480;2024-02-04T04:03:21;15.10;;;8.33;;
19006;SDS011;9636;47.382;8.480;2024-02-04T04:05:49;14.17;;;8.37;;
19006;SDS011;9636;47.382;8.480;2024-02-04T04:08:16;15.90;;;9.40;;
19006;SDS011;9636;47.382;8.480;2024-02-04T04:10:43;14.10;;;9.50;;
19006;SDS011;9636;47.382;8.480;2024-02-04T04:13:10;15.60;;;10.93;;
19006;SDS011;9636;47.382;8.480;2024-02-04T04:15:37;17.00;;;10.83;;
19006;SDS011;9636;47.382;8.480;2024-02-04T04:18:04;19.57;;;12.40;;
19006;SDS011;9636;47.382;8.480;2024-02-04T04:20:31;20.30;;;12.93;;
19006;SDS011;9636;47.382;8.480;2024-02-04T04:23:00;23.53;;;13.30;;
19006;SDS011;9636;47.382;8.480;2024-02-04T04:25:26;23.10;;;13.30;;
19006;SDS011;9636;47.382;8.480;2024-02-04T04:27:53;23.13;;;13.53;;
19006;SDS011;9636;47.382;8.480;2024-02-04T04:30:21;24.17;;;13.47;;
19006;SDS011;9636;47.382;8.480;2024-02-04T04:32:48;24.00;;;13.27;;
19006;SDS011;9636;47.382;8.480;2024-02-04T04:35:15;21.27;;;12.73;;
19006;SDS011;9636;47.382;8.480;2024-02-04T04:37:41;21.53;;;13.53;;
19006;SDS011;9636;47.382;8.480;2024-02-04T04:40:10;24.40;;;14.47;;
19006;SDS011;9636;47.382;8.480;2024-02-04T04:42:38;23.73;;;13.60;;
19006;SDS011;9636;47.382;8.480;2024-02-04T04:45:05;24.77;;;13.80;;
19006;SDS011;9636;47.382;8.480;2024-02-04T04:47:32;24.03;;;14.20;;
19006;SDS011;9636;47.382;8.480;2024-02-04T04:49:59;26.63;;;15.47;;
19006;SDS011;9636;47.382;8.480;2024-02-04T04:52:26;23.93;;;14.13;;
19006;SDS011;9636;47.382;8.480;2024-02-04T04:54:53;20.93;;;13.30;;
19006;SDS011;9636;47.382;8.480;2024-02-04T04:57:22;23.63;;;13.37;;
19006;SDS011;9636;47.382;8.480;2024-02-04T04:59:48;22.07;;;13.07;;
19006;SDS011;9636;47.382;8.480;2024-02-04T05:02:15;20.70;;;12.60;;
19006;SDS011;9636;47.382;8.480;2024-02-04T05:04:42;21.40;;;12.10;;
19006;SDS011;9636;47.382;8.480;2024-02-04T05:07:10;19.60;;;12.10;;
19006;SDS011;9636;47.382;8.480;2024-02-04T05:09:36;17.63;;;10.87;;
19006;SDS011;9636;47.382;8.480;2024-02-04T05:12:03;16.27;;;9.97;;
19006;SDS011;9636;47.382;8.480;2024-02-04T05:14:33;16.43;;;9.87;;
19006;SDS011;9636;47.382;8.480;2024-02-04T05:17:00;16.30;;;9.57;;
19006;SDS011;9636;47.382;8.480;2024-02-04T05:19:27;18.33;;;10.10;;
19006;SDS011;9636;47.382;8.480;2024-02-04T05:21:54;19.07;;;9.47;;
19006;SDS011;9636;47.382;8.480;2024-02-04T05:24:21;17.33;;;10.20;;
19006;SDS011;9636;47.382;8.480;2024-02-04T05:26:47;15.47;;;9.87;;
19006;SDS011;9636;47.382;8.480;2024-02-04T05:29:14;14.47;;;9.23;;
19006;SDS011;9636;47.382;8.480;2024-02-04T05:31:42;14.17;;;8.70;;
19006;SDS011;9636;47.382;8.480;2024-02-04T05:34:10;10.33;;;6.80;;
19006;SDS011;9636;47.382;8.480;2024-02-04T05:36:37;12.03;;;8.23;;
19006;SDS011;9636;47.382;8.480;2024-02-04T05:39:13;13.53;;;9.10;;
19006;SDS011;9636;47.382;8.480;2024-02-04T05:41:41;11.00;;;6.80;;
19006;SDS011;9636;47.382;8.480;2024-02-04T05:44:08;11.50;;;7.70;;
19006;SDS011;9636;47.382;8.480;2024-02-04T05:46:35;10.50;;;6.60;;
19006;SDS011;9636;47.382;8.480;2024-02-04T05:49:03;11.30;;;6.60;;
19006;SDS011;9636;47.382;8.480;2024-02-04T05:51:31;9.20;;;6.10;;
19006;SDS011;9636;47.382;8.480;2024-02-04T05:54:03;9.87;;;6.50;;
19006;SDS011;9636;47.382;8.480;2024-02-04T05:56:30;8.93;;;5.97;;
19006;SDS011;9636;47.382;8.480;2024-02-04T05:58:56;9.07;;;6.00;;
19006;SDS011;9636;47.382;8.480;2024-02-04T06:01:23;7.70;;;5.87;;
19006;SDS011;9636;47.382;8.480;2024-02-04T06:03:50;9.50;;;6.10;;
19006;SDS011;9636;47.382;8.480;2024-02-04T06:06:18;10.27;;;6.00;;
19006;SDS011;9636;47.382;8.480;2024-02-04T06:08:45;9.10;;;5.90;;
19006;SDS011;9636;47.382;8.480;2024-02-04T06:11:13;8.87;;;5.63;;
19006;SDS011;9636;47.382;8.480;2024-02-04T06:13:40;11.67;;;6.10;;
19006;SDS011;9636;47.382;8.480;2024-02-04T06:16:08;13.53;;;6.17;;
19006;SDS011;9636;47.382;8.480;2024-02-04T06:18:36;9.87;;;5.97;;
19006;SDS011;9636;47.382;8.480;2024-02-04T06:21:04;10.90;;;6.33;;
19006;SDS011;9636;47.382;8.480;2024-02-04T06:23:32;10.03;;;7.00;;
19006;SDS011;9636;47.382;8.480;2024-02-04T06:25:59;12.80;;;6.87;;
19006;SDS011;9636;47.382;8.480;2024-02-04T06:28:27;10.23;;;6.17;;
19006;SDS011;9636;47.382;8.480;2024-02-04T06:30:53;13.37;;;7.60;;
19006;SDS011;9636;47.382;8.480;2024-02-04T06:33:20;12.33;;;7.30;;
19006;SDS011;9636;47.382;8.480;2024-02-04T06:35:48;16.00;;;8.10;;
19006;SDS011;9636;47.382;8.480;2024-02-04T06:38:15;12.60;;;7.37;;
19006;SDS011;9636;47.382;8.480;2024-02-04T06:40:43;12.03;;;7.37;;
19006;SDS011;9636;47.382;8.480;2024-02-04T06:43:10;13.77;;;8.27;;
19006;SDS011;9636;47.382;8.480;2024-02-04T06:45:36;12.23;;;7.87;;
19006;SDS011;9636;47.382;8.480;2024-02-04T06:48:04;13.77;;;8.70;;
19006;SDS011;9636;47.382;8.480;2024-02-04T06:50:32;13.40;;;8.23;;
19006;SDS011;9636;47.382;8.480;2024-02-04T06:52:59;14.60;;;9.20;;
19006;SDS011;9636;47.382;8.480;2024-02-04T06:55:25;15.10;;;7.83;;
19006;SDS011;9636;47.382;8.480;2024-02-04T06:57:54;14.77;;;8.30;;
19006;SDS011;9636;47.382;8.480;2024-02-04T07:00:20;12.37;;;7.80;;
19006;SDS011;9636;47.382;8.480;2024-02-04T07:02:47;15.33;;;7.63;;
19006;SDS011;9636;47.382;8.480;2024-02-04T07:05:14;12.57;;;8.03;;
19006;SDS011;9636;47.382;8.480;2024-02-04T07:07:41;12.43;;;7.67;;
19006;SDS011;9636;47.382;8.480;2024-02-04T07:10:09;10.60;;;7.13;;
19006;SDS011;9636;47.382;8.480;2024-02-04T07:12:36;11.73;;;7.37;;
19006;SDS011;9636;47.382;8.480;2024-02-04T07:15:04;11.23;;;7.73;;
19006;SDS011;9636;47.382;8.480;2024-02-04T07:17:31;11.03;;;6.63;;
19006;SDS011;9636;47.382;8.480;2024-02-04T07:19:58;12.60;;;7.70;;
19006;SDS011;9636;47.382;8.480;2024-02-04T07:22:25;10.63;;;6.50;;
19006;SDS011;9636;47.382;8.480;2024-02-04T07:24:52;11.50;;;7.00;;
19006;SDS011;9636;47.382;8.480;2024-02-04T07:27:18;11.67;;;6.60;;
19006;SDS011;9636;47.382;8.480;2024-02-04T07:29:45;9.73;;;6.43;;
19006;SDS011;9636;47.382;8.480;2024-02-04T07:32:14;8.83;;;6.23;;
19006;SDS011;9636;47.382;8.480;2024-02-04T07:34:41;10.30;;;6.93;;
19006;SDS011;9636;47.382;8.480;2024-02-04T07:37:08;8.13;;;5.80;;
19006;SDS011;9636;47.382;8.480;2024-02-04T07:39:34;11.60;;;7.10;;
19006;SDS011;9636;47.382;8.480;2024-02-04T07:42:01;11.17;;;6.60;;
19006;SDS011;9636;47.382;8.480;2024-02-04T07:44:28;11.83;;;6.60;;
19006;SDS011;9636;47.382;8.480;2024-02-04T07:46:55;11.60;;;6.53;;
19006;SDS011;9636;47.382;8.480;2024-02-04T07:49:24;11.57;;;7.17;;
19006;SDS011;9636;47.382;8.480;2024-02-04T07:51:50;11.60;;;7.13;;
19006;SDS011;9636;47.382;8.480;2024-02-04T07:54:17;10.80;;;7.00;;
19006;SDS011;9636;47.382;8.480;2024-02-04T07:56:44;12.13;;;7.40;;
19006;SDS011;9636;47.382;8.480;2024-02-04T07:59:11;10.13;;;6.57;;
19006;SDS011;9636;47.382;8.480;2024-02-04T08:01:37;10.43;;;6.23;;
19006;SDS011;9636;47.382;8.480;2024-02-04T08:04:04;10.80;;;6.90;;
19006;SDS011;9636;47.382;8.480;2024-02-04T08:06:35;13.43;;;7.20;;
19006;SDS011;9636;47.382;8.480;2024-02-04T08:09:02;11.83;;;7.00;;
19006;SDS011;9636;47.382;8.480;2024-02-04T08:11:29;11.03;;;6.83;;
19006;SDS011;9636;47.382;8.480;2024-02-04T08:13:56;11.00;;;7.07;;
19006;SDS011;9636;47.382;8.480;2024-02-04T08:16:23;12.53;;;7.17;;
19006;SDS011;9636;47.382;8.480;2024-02-04T08:18:50;12.47;;;7.23;;
19006;SDS011;9636;47.382;8.480;2024-02-04T08:21:16;11.50;;;6.67;;
19006;SDS011;9636;47.382;8.480;2024-02-04T08:23:45;14.67;;;7.97;;
19006;SDS011;9636;47.382;8.480;2024-02-04T08:26:11;13.90;;;8.33;;
19006;SDS011;9636;47.382;8.480;2024-02-04T08:28:39;13.73;;;7.87;;
19006;SDS011;9636;47.382;8.480;2024-02-04T08:31:05;14.47;;;7.80;;
19006;SDS011;9636;47.382;8.480;2024-02-04T08:33:32;15.10;;;8.30;;
19006;SDS011;9636;47.382;8.480;2024-02-04T08:35:59;14.17;;;7.90;;
19006;SDS011;9636;47.382;8.480;2024-02-04T08:38:26;14.37;;;8.00;;
19006;SDS011;9636;47.382;8.480;2024-02-04T08:40:54;14.53;;;8.03;;
19006;SDS011;9636;47.382;8.480;2024-02-04T08:43:29;12.80;;;7.53;;
19006;SDS011;9636;47.382;8.480;2024-02-04T08:45:55;14.27;;;8.43;;
19006;SDS011;9636;47.382;8.480;2024-02-04T08:48:22;14.33;;;7.90;;
19006;SDS011;9636;47.382;8.480;2024-02-04T08:50:49;14.33;;;8.37;;
19006;SDS011;9636;47.382;8.480;2024-02-04T08:53:16;15.13;;;8.00;;
19006;SDS011;9636;47.382;8.480;2024-02-04T08:55:43;13.73;;;7.17;;
19006;SDS011;9636;47.382;8.480;2024-02-04T08:58:11;12.27;;;6.77;;
19006;SDS011;9636;47.382;8.480;2024-02-04T09:00:37;13.33;;;7.57;;
19006;SDS011;9636;47.382;8.480;2024-02-04T09:03:04;13.17;;;7.33;;
19006;SDS011;9636;47.382;8.480;2024-02-04T09:05:31;11.23;;;7.30;;
19006;SDS011;9636;47.382;8.480;2024-02-04T09:07:58;12.27;;;7.70;;
19006;SDS011;9636;47.382;8.480;2024-02-04T09:10:26;9.73;;;6.37;;
19006;SDS011;9636;47.382;8.480;2024-02-04T09:12:53;9.93;;;6.10;;
19006;SDS011;9636;47.382;8.480;2024-02-04T09:15:21;9.83;;;6.40;;
19006;SDS011;9636;47.382;8.480;2024-02-04T09:17:48;9.43;;;6.00;;
19006;SDS011;9636;47.382;8.480;2024-02-04T09:20:14;8.73;;;5.60;;
19006;SDS011;9636;47.382;8.480;2024-02-04T09:22:42;9.03;;;5.73;;
19006;SDS011;9636;47.382;8.480;2024-02-04T09:25:09;10.23;;;4.90;;
19006;SDS011;9636;47.382;8.480;2024-02-04T09:27:35;10.80;;;5.60;;
19006;SDS011;9636;47.382;8.480;2024-02-04T09:30:02;8.80;;;5.57;;
19006;SDS011;9636;47.382;8.480;2024-02-04T09:32:32;9.27;;;5.80;;
19006;SDS011;9636;47.382;8.480;2024-02-04T09:34:59;11.63;;;6.23;;
19006;SDS011;9636;47.382;8.480;2024-02-04T09:37:26;10.13;;;6.10;;
19006;SDS011;9636;47.382;8.480;2024-02-04T09:39:52;8.13;;;5.67;;
19006;SDS011;9636;47.382;8.480;2024-02-04T09:42:19;11.27;;;5.67;;
19006;SDS011;9636;47.382;8.480;2024-02-04T09:44:48;8.90;;;5.70;;
19006;SDS011;9636;47.382;8.480;2024-02-04T09:47:15;10.30;;;6.17;;
19006;SDS011;9636;47.382;8.480;2024-02-04T09:49:44;12.20;;;5.80;;
19006;SDS011;9636;47.382;8.480;2024-02-04T09:52:11;9.67;;;5.47;;
19006;SDS011;9636;47.382;8.480;2024-02-04T09:54:41;7.57;;;5.00;;
19006;SDS011;9636;47.382;8.480;2024-02-04T09:57:10;9.20;;;5.40;;
19006;SDS011;9636;47.382;8.480;2024-02-04T09:59:38;9.20;;;5.77;;
19006;SDS011;9636;47.382;8.480;2024-02-04T10:02:06;8.80;;;5.60;;
19006;SDS011;9636;47.382;8.480;2024-02-04T10:04:35;9.00;;;5.93;;
19006;SDS011;9636;47.382;8.480;2024-02-04T10:07:02;8.63;;;5.47;;
19006;SDS011;9636;47.382;8.480;2024-02-04T10:09:29;9.83;;;6.13;;
19006;SDS011;9636;47.382;8.480;2024-02-04T10:11:56;8.67;;;5.17;;
19006;SDS011;9636;47.382;8.480;2024-02-04T10:14:23;9.93;;;5.40;;
19006;SDS011;9636;47.382;8.480;2024-02-04T10:16:50;8.70;;;5.10;;
19006;SDS011;9636;47.382;8.480;2024-02-04T10:19:17;8.23;;;4.70;;
19006;SDS011;9636;47.382;8.480;2024-02-04T10:21:44;7.10;;;4.40;;
19006;SDS011;9636;47.382;8.480;2024-02-04T10:24:12;7.80;;;4.03;;
19006;SDS011;9636;47.382;8.480;2024-02-04T10:26:39;6.73;;;4.80;;
19006;SDS011;9636;47.382;8.480;2024-02-04T10:29:08;6.63;;;4.47;;
19006;SDS011;9636;47.382;8.480;2024-02-04T10:31:35;7.10;;;4.50;;
19006;SDS011;9636;47.382;8.480;2024-02-04T10:34:02;6.90;;;3.93;;
19006;SDS011;9636;47.382;8.480;2024-02-04T10:36:30;6.93;;;4.40;;
19006;SDS011;9636;47.382;8.480;2024-02-04T10:38:57;6.50;;;3.87;;
19006;SDS011;9636;47.382;8.480;2024-02-04T10:41:25;6.77;;;3.87;;
19006;SDS011;9636;47.382;8.480;2024-02-04T10:43:56;5.17;;;3.40;;
19006;SDS011;9636;47.382;8.480;2024-02-04T10:46:27;7.50;;;3.83;;
19006;SDS011;9636;47.382;8.480;2024-02-04T10:48:59;4.67;;;3.40;;
19006;SDS011;9636;47.382;8.480;2024-02-04T10:51:31;6.13;;;2.87;;
19006;SDS011;9636;47.382;8.480;2024-02-04T10:54:01;5.60;;;2.77;;
19006;SDS011;9636;47.382;8.480;2024-02-04T10:56:34;5.60;;;2.67;;
19006;SDS011;9636;47.382;8.480;2024-02-04T10:59:03;4.50;;;2.77;;
19006;SDS011;9636;47.382;8.480;2024-02-04T11:01:31;3.50;;;2.73;;
19006;SDS011;9636;47.382;8.480;2024-02-04T11:03:59;4.60;;;2.90;;
19006;SDS011;9636;47.382;8.480;2024-02-04T11:06:26;4.57;;;2.97;;
19006;SDS011;9636;47.382;8.480;2024-02-04T11:08:54;4.43;;;3.10;;
19006;SDS011;9636;47.382;8.480;2024-02-04T11:11:23;4.83;;;3.20;;
19006;SDS011;9636;47.382;8.480;2024-02-04T11:13:54;5.37;;;3.00;;
19006;SDS011;9636;47.382;8.480;2024-02-04T11:16:29;5.13;;;3.10;;
19006;SDS011;9636;47.382;8.480;2024-02-04T11:19:11;5.03;;;3.27;;
19006;SDS011;9636;47.382;8.480;2024-02-04T11:22:03;3.30;;;2.80;;
19006;SDS011;9636;47.382;8.480;2024-02-04T11:24:53;5.50;;;3.47;;
19006;SDS011;9636;47.382;8.480;2024-02-04T11:27:29;5.80;;;3.30;;
19006;SDS011;9636;47.382;8.480;2024-02-04T11:29:57;5.10;;;3.43;;
19006;SDS011;9636;47.382;8.480;2024-02-04T11:32:24;6.07;;;3.57;;
19006;SDS011;9636;47.382;8.480;2024-02-04T11:34:52;4.13;;;3.30;;
19006;SDS011;9636;47.382;8.480;2024-02-04T11:37:19;5.90;;;3.50;;
19006;SDS011;9636;47.382;8.480;2024-02-04T11:39:50;5.30;;;3.67;;
19006;SDS011;9636;47.382;8.480;2024-02-04T11:42:17;5.33;;;4.00;;
19006;SDS011;9636;47.382;8.480;2024-02-04T11:44:45;5.13;;;3.80;;
19006;SDS011;9636;47.382;8.480;2024-02-04T11:47:23;5.63;;;3.73;;
19006;SDS011;9636;47.382;8.480;2024-02-04T11:49:54;6.53;;;3.63;;
19006;SDS011;9636;47.382;8.480;2024-02-04T11:52:21;4.27;;;3.40;;
19006;SDS011;9636;47.382;8.480;2024-02-04T11:54:48;5.33;;;3.33;;
19006;SDS011;9636;47.382;8.480;2024-02-04T11:57:15;5.93;;;3.63;;
19006;SDS011;9636;47.382;8.480;2024-02-04T11:59:42;5.23;;;3.80;;
19006;SDS011;9636;47.382;8.480;2024-02-04T12:02:10;5.13;;;3.57;;
19006;SDS011;9636;47.382;8.480;2024-02-04T12:04:39;5.00;;;3.50;;
19006;SDS011;9636;47.382;8.480;2024-02-04T12:07:06;8.90;;;3.87;;
19006;SDS011;9636;47.382;8.480;2024-02-04T12:09:34;6.53;;;4.00;;
19006;SDS011;9636;47.382;8.480;2024-02-04T12:12:01;5.93;;;3.90;;
19006;SDS011;9636;47.382;8.480;2024-02-04T12:14:29;5.30;;;3.40;;
19006;SDS011;9636;47.382;8.480;2024-02-04T12:16:56;4.25;;;3.47;;
19006;SDS011;9636;47.382;8.480;2024-02-04T12:19:24;6.32;;;3.88;;
19006;SDS011;9636;47.382;8.480;2024-02-04T12:21:53;4.90;;;3.80;;
19006;SDS011;9636;47.382;8.480;2024-02-04T12:24:21;5.67;;;3.97;;
19006;SDS011;9636;47.382;8.480;2024-02-04T12:26:48;5.63;;;3.80;;
19006;SDS011;9636;47.382;8.480;2024-02-04T12:29:15;6.33;;;4.23;;
19006;SDS011;9636;47.382;8.480;2024-02-04T12:31:42;4.70;;;3.80;;
19006;SDS011;9636;47.382;8.480;2024-02-04T12:34:10;8.20;;;4.47;;
19006;SDS011;9636;47.382;8.480;2024-02-04T12:36:38;6.27;;;4.60;;
19006;SDS011;9636;47.382;8.480;2024-02-04T12:39:07;6.10;;;3.90;;
19006;SDS011;9636;47.382;8.480;2024-02-04T12:41:37;7.57;;;4.50;;
19006;SDS011;9636;47.382;8.480;2024-02-04T12:44:03;10.77;;;4.80;;
19006;SDS011;9636;47.382;8.480;2024-02-04T12:46:31;6.27;;;4.53;;
19006;SDS011;9636;47.382;8.480;2024-02-04T12:48:58;7.00;;;4.93;;
19006;SDS011;9636;47.382;8.480;2024-02-04T12:51:25;7.47;;;5.30;;
19006;SDS011;9636;47.382;8.480;2024-02-04T12:54:02;7.70;;;4.90;;
19006;SDS011;9636;47.382;8.480;2024-02-04T12:56:40;9.07;;;5.50;;
19006;SDS011;9636;47.382;8.480;2024-02-04T12:59:12;8.67;;;5.13;;
19006;SDS011;9636;47.382;8.480;2024-02-04T13:01:51;7.70;;;5.23;;
19006;SDS011;9636;47.382;8.480;2024-02-04T13:04:19;7.70;;;5.60;;
19006;SDS011;9636;47.382;8.480;2024-02-04T13:06:46;7.73;;;5.20;;
19006;SDS011;9636;47.382;8.480;2024-02-04T13:09:13;8.30;;;4.97;;
19006;SDS011;9636;47.382;8.480;2024-02-04T13:11:42;8.43;;;5.77;;
19006;SDS011;9636;47.382;8.480;2024-02-04T13:14:09;9.67;;;5.80;;
19006;SDS011;9636;47.382;8.480;2024-02-04T13:16:37;9.90;;;6.03;;
19006;SDS011;9636;47.382;8.480;2024-02-04T13:19:04;9.53;;;5.73;;
19006;SDS011;9636;47.382;8.480;2024-02-04T13:21:31;8.63;;;5.40;;
19006;SDS011;9636;47.382;8.480;2024-02-04T13:23:58;8.10;;;5.37;;
19006;SDS011;9636;47.382;8.480;2024-02-04T13:26:25;8.48;;;5.40;;
19006;SDS011;9636;47.382;8.480;2024-02-04T13:28:53;7.82;;;5.25;;
19006;SDS011;9636;47.382;8.480;2024-02-04T13:31:20;9.25;;;5.47;;
19006;SDS011;9636;47.382;8.480;2024-02-04T13:33:47;8.20;;;5.50;;
19006;SDS011;9636;47.382;8.480;2024-02-04T13:36:14;9.38;;;5.50;;
19006;SDS011;9636;47.382;8.480;2024-02-04T13:38:40;11.10;;;5.50;;
19006;SDS011;9636;47.382;8.480;2024-02-04T13:41:07;7.63;;;5.10;;
19006;SDS011;9636;47.382;8.480;2024-02-04T13:43:34;9.77;;;5.27;;
19006;SDS011;9636;47.382;8.480;2024-02-04T13:46:02;8.63;;;4.83;;
19006;SDS011;9636;47.382;8.480;2024-02-04T13:48:29;7.77;;;4.63;;
19006;SDS011;9636;47.382;8.480;2024-02-04T13:50:56;7.03;;;4.97;;
19006;SDS011;9636;47.382;8.480;2024-02-04T13:53:23;6.43;;;4.73;;
19006;SDS011;9636;47.382;8.480;2024-02-04T13:55:50;6.77;;;4.33;;
19006;SDS011;9636;47.382;8.480;2024-02-04T13:58:17;11.47;;;5.07;;
19006;SDS011;9636;47.382;8.480;2024-02-04T14:00:44;7.00;;;4.33;;
19006;SDS011;9636;47.382;8.480;2024-02-04T14:03:12;8.90;;;4.87;;
19006;SDS011;9636;47.382;8.480;2024-02-04T14:05:39;7.83;;;4.10;;
19006;SDS011;9636;47.382;8.480;2024-02-04T14:08:06;6.37;;;4.00;;
19006;SDS011;9636;47.382;8.480;2024-02-04T14:10:33;4.97;;;3.63;;
19006;SDS011;9636;47.382;8.480;2024-02-04T14:13:00;4.87;;;3.23;;
19006;SDS011;9636;47.382;8.480;2024-02-04T14:15:27;5.87;;;4.00;;
19006;SDS011;9636;47.382;8.480;2024-02-04T14:17:53;6.40;;;3.43;;
19006;SDS011;9636;47.382;8.480;2024-02-04T14:20:21;5.60;;;3.77;;
19006;SDS011;9636;47.382;8.480;2024-02-04T14:22:48;12.23;;;3.90;;
19006;SDS011;9636;47.382;8.480;2024-02-04T14:25:15;9.77;;;4.07;;
19006;SDS011;9636;47.382;8.480;2024-02-04T14:27:42;7.33;;;3.50;;
19006;SDS011;9636;47.382;8.480;2024-02-04T14:30:09;8.63;;;3.93;;
19006;SDS011;9636;47.382;8.480;2024-02-04T14:32:37;5.23;;;3.80;;
19006;SDS011;9636;47.382;8.480;2024-02-04T14:35:04;6.93;;;4.23;;
19006;SDS011;9636;47.382;8.480;2024-02-04T14:37:32;6.07;;;4.57;;
19006;SDS011;9636;47.382;8.480;2024-02-04T14:40:00;7.63;;;4.60;;
19006;SDS011;9636;47.382;8.480;2024-02-04T14:42:28;6.07;;;4.20;;
19006;SDS011;9636;47.382;8.480;2024-02-04T14:44:55;7.90;;;4.17;;
19006;SDS011;9636;47.382;8.480;2024-02-04T14:47:22;8.17;;;4.23;;
19006;SDS011;9636;47.382;8.480;2024-02-04T14:49:49;8.40;;;4.30;;
19006;SDS011;9636;47.382;8.480;2024-02-04T14:52:15;10.83;;;5.60;;
19006;SDS011;9636;47.382;8.480;2024-02-04T14:54:44;8.47;;;4.90;;
19006;SDS011;9636;47.382;8.480;2024-02-04T14:57:11;5.33;;;3.87;;
19006;SDS011;9636;47.382;8.480;2024-02-04T14:59:38;8.47;;;3.80;;
19006;SDS011;9636;47.382;8.480;2024-02-04T15:02:05;7.63;;;4.30;;